createdAt,value
2023-07-26T00:00:24.938Z,86.24
2023-07-26T00:00:56.795Z,86.20
2023-07-26T00:01:28.618Z,86.36
2023-07-26T00:02:00.434Z,86.36
2023-07-26T00:02:32.509Z,85.98
2023-07-26T00:03:04.484Z,85.77
2023-07-26T00:03:36.449Z,85.39
2023-07-26T00:04:08.488Z,86.20
2023-07-26T00:04:40.344Z,86.28
2023-07-26T00:05:12.192Z,85.60
2023-07-26T00:05:44.007Z,85.69
2023-07-26T00:06:16.028Z,85.47
2023-07-26T00:06:48.006Z,85.25
2023-07-26T00:07:19.881Z,84.51
2023-07-26T00:07:51.730Z,85.26
2023-07-26T00:08:23.549Z,84.77
2023-07-26T00:08:55.362Z,84.93
2023-07-26T00:09:27.183Z,85.04
2023-07-26T00:09:59.016Z,85.42
2023-07-26T00:10:30.832Z,84.70
2023-07-26T00:11:04.402Z,84.86
2023-07-26T00:11:37.535Z,84.40
2023-07-26T00:12:09.394Z,84.27
2023-07-26T00:12:41.242Z,84.73
2023-07-26T00:13:13.250Z,84.44
2023-07-26T00:13:45.096Z,85.24
2023-07-26T00:14:16.895Z,85.48
2023-07-26T00:14:48.709Z,84.94
2023-07-26T00:15:20.544Z,85.60
2023-07-26T00:15:52.438Z,86.13
2023-07-26T00:16:24.345Z,86.66
2023-07-26T00:16:56.608Z,86.77
2023-07-26T00:17:28.479Z,86.98
2023-07-26T00:18:00.372Z,86.75
2023-07-26T00:18:32.249Z,86.80
2023-07-26T00:19:04.048Z,86.80
2023-07-26T00:19:35.865Z,86.93
2023-07-26T00:20:08.335Z,86.50
2023-07-26T00:20:40.182Z,87.09
2023-07-26T00:21:12.022Z,87.14
2023-07-26T00:21:43.841Z,86.55
2023-07-26T00:22:15.658Z,86.08
2023-07-26T00:22:47.594Z,86.23
2023-07-26T00:23:19.381Z,86.53
2023-07-26T00:23:51.229Z,86.44
2023-07-26T00:24:23.265Z,87.09
2023-07-26T00:24:55.445Z,86.84
2023-07-26T00:25:27.415Z,86.54
2023-07-26T00:25:59.279Z,86.69
2023-07-26T00:26:31.403Z,86.45
2023-07-26T00:27:03.759Z,86.64
2023-07-26T00:27:35.588Z,86.24
2023-07-26T00:28:07.424Z,86.04
2023-07-26T00:28:39.245Z,85.36
2023-07-26T00:29:11.181Z,85.45
2023-07-26T00:29:43.018Z,85.05
2023-07-26T00:30:15.722Z,85.64
2023-07-26T00:30:49.622Z,85.74
2023-07-26T00:31:22.370Z,85.98
2023-07-26T00:31:54.238Z,85.64
2023-07-26T00:32:26.047Z,85.61
2023-07-26T00:32:58.006Z,85.64
2023-07-26T00:33:29.863Z,86.08
2023-07-26T00:34:01.671Z,87.16
2023-07-26T00:34:33.478Z,86.52
2023-07-26T00:35:05.619Z,86.49
2023-07-26T00:35:41.577Z,85.99
2023-07-26T00:36:13.458Z,86.74
2023-07-26T00:36:45.261Z,86.08
2023-07-26T00:37:17.067Z,86.71
2023-07-26T00:37:51.254Z,86.49
2023-07-26T00:38:23.059Z,86.69
2023-07-26T00:38:54.859Z,86.10
2023-07-26T00:39:26.674Z,86.41
2023-07-26T00:39:58.534Z,86.49
2023-07-26T00:40:30.353Z,86.46
2023-07-26T00:41:02.217Z,86.28
2023-07-26T00:41:34.081Z,86.85
2023-07-26T00:42:06.323Z,86.32
2023-07-26T00:42:38.141Z,86.37
2023-07-26T00:43:09.983Z,87.02
2023-07-26T00:43:41.823Z,87.72
2023-07-26T00:44:13.639Z,87.05
2023-07-26T00:44:45.610Z,87.51
2023-07-26T00:45:17.475Z,87.07
2023-07-26T00:45:49.764Z,87.18
2023-07-26T00:46:22.690Z,87.54
2023-07-26T00:46:55.009Z,87.39
2023-07-26T00:47:27.081Z,87.31
2023-07-26T00:47:59.261Z,86.60
2023-07-26T00:48:32.538Z,86.45
2023-07-26T00:49:04.481Z,86.95
2023-07-26T00:49:36.616Z,86.54
2023-07-26T00:50:09.634Z,87.16
2023-07-26T00:50:44.429Z,87.38
2023-07-26T00:51:16.407Z,87.72
2023-07-26T00:51:48.402Z,86.71
2023-07-26T00:52:20.377Z,86.51
2023-07-26T00:52:52.940Z,87.39
2023-07-26T00:53:25.271Z,87.33
2023-07-26T00:53:57.068Z,87.43
2023-07-26T00:54:29.376Z,87.36
2023-07-26T00:55:03.884Z,86.90
2023-07-26T00:55:36.344Z,86.80
2023-07-26T00:56:08.477Z,87.18
2023-07-26T00:56:40.617Z,87.40
2023-07-26T00:57:12.479Z,86.12
2023-07-26T00:57:46.625Z,86.52
2023-07-26T00:58:18.618Z,87.10
2023-07-26T00:58:50.744Z,86.76
2023-07-26T00:59:22.616Z,86.99
2023-07-26T00:59:54.590Z,87.54
2023-07-26T01:00:26.618Z,87.57
2023-07-26T01:00:58.923Z,87.95
2023-07-26T01:01:30.872Z,87.90
2023-07-26T01:02:02.903Z,87.15
2023-07-26T01:02:34.938Z,87.64
2023-07-26T01:03:07.100Z,87.48
2023-07-26T01:03:38.929Z,87.11
2023-07-26T01:04:10.753Z,87.51
2023-07-26T01:04:42.575Z,87.68
2023-07-26T01:05:14.992Z,87.78
2023-07-26T01:06:17.592Z,87.89
2023-07-26T01:07:29.905Z,88.32
2023-07-26T01:08:35.961Z,88.55
2023-07-26T01:09:13.885Z,87.76
2023-07-26T01:10:06.271Z,87.57
2023-07-26T01:10:47.761Z,88.67
2023-07-26T01:11:32.083Z,87.72
2023-07-26T01:12:11.212Z,87.58
2023-07-26T01:12:56.229Z,88.20
2023-07-26T01:14:11.181Z,88.39
2023-07-26T01:15:07.563Z,87.78
2023-07-26T01:15:42.901Z,88.63
2023-07-26T01:16:15.013Z,88.18
2023-07-26T01:16:47.983Z,88.27
2023-07-26T01:17:19.826Z,88.11
2023-07-26T01:18:11.621Z,87.75
2023-07-26T01:18:43.420Z,88.17
2023-07-26T01:19:15.248Z,88.42
2023-07-26T01:19:47.100Z,88.57
2023-07-26T01:20:18.967Z,88.06
2023-07-26T01:20:50.777Z,88.05
2023-07-26T01:21:22.592Z,88.19
2023-07-26T01:21:54.404Z,88.49
2023-07-26T01:22:26.223Z,88.27
2023-07-26T01:22:58.028Z,87.61
2023-07-26T01:23:29.823Z,87.95
2023-07-26T01:24:01.721Z,87.93
2023-07-26T01:24:34.062Z,88.05
2023-07-26T01:25:06.691Z,87.54
2023-07-26T01:25:38.525Z,87.91
2023-07-26T01:26:10.361Z,87.98
2023-07-26T01:26:42.217Z,87.65
2023-07-26T01:27:14.176Z,87.83
2023-07-26T01:27:45.963Z,88.66
2023-07-26T01:28:17.850Z,88.43
2023-07-26T01:28:49.772Z,88.64
2023-07-26T01:29:22.358Z,88.30
2023-07-26T01:29:57.314Z,88.66
2023-07-26T01:30:32.115Z,87.90
2023-07-26T01:31:07.570Z,88.35
2023-07-26T01:31:39.822Z,88.32
2023-07-26T01:32:15.573Z,88.49
2023-07-26T01:32:52.677Z,88.08
2023-07-26T01:33:28.321Z,88.77
2023-07-26T01:34:02.885Z,88.80
2023-07-26T01:34:35.884Z,89.06
2023-07-26T01:35:08.887Z,88.83
2023-07-26T01:35:41.848Z,89.21
2023-07-26T01:36:13.920Z,88.76
2023-07-26T01:36:46.487Z,89.17
2023-07-26T01:37:20.734Z,88.97
2023-07-26T01:37:55.936Z,89.29
2023-07-26T01:38:30.347Z,88.72
2023-07-26T01:39:04.000Z,88.88
2023-07-26T01:39:36.162Z,88.88
2023-07-26T01:40:09.215Z,88.96
2023-07-26T01:40:42.412Z,89.11
2023-07-26T01:41:16.824Z,88.60
2023-07-26T01:41:49.234Z,88.48
2023-07-26T01:42:21.614Z,88.60
2023-07-26T01:42:54.312Z,88.64
2023-07-26T01:43:26.605Z,88.14
2023-07-26T01:43:58.417Z,88.54
2023-07-26T01:44:38.684Z,88.48
2023-07-26T01:45:10.836Z,88.38
2023-07-26T01:45:42.682Z,87.97
2023-07-26T01:46:15.395Z,87.99
2023-07-26T01:46:47.516Z,88.18
2023-07-26T01:47:19.577Z,87.66
2023-07-26T01:47:53.930Z,88.00
2023-07-26T01:48:25.774Z,87.99
2023-07-26T01:48:57.785Z,88.27
2023-07-26T01:49:29.639Z,87.79
2023-07-26T01:50:01.738Z,88.62
2023-07-26T01:50:33.581Z,88.60
2023-07-26T01:51:05.719Z,88.61
2023-07-26T01:51:37.562Z,88.40
2023-07-26T01:52:09.379Z,88.32
2023-07-26T01:52:41.195Z,88.74
2023-07-26T01:53:13.094Z,88.57
2023-07-26T01:53:45.042Z,88.68
2023-07-26T01:54:17.438Z,88.11
2023-07-26T01:54:49.277Z,88.73
2023-07-26T01:55:21.087Z,88.51
2023-07-26T01:55:52.925Z,88.36
2023-07-26T01:56:25.032Z,88.92
2023-07-26T01:56:56.907Z,88.78
2023-07-26T01:57:28.895Z,88.59
2023-07-26T01:58:00.723Z,88.56
2023-07-26T01:58:32.531Z,88.36
2023-07-26T01:59:04.620Z,88.46
2023-07-26T01:59:36.429Z,88.16
2023-07-26T02:00:09.045Z,88.46
2023-07-26T02:00:43.747Z,88.69
2023-07-26T02:01:15.556Z,88.71
2023-07-26T02:01:47.400Z,88.63
2023-07-26T02:02:19.458Z,88.68
2023-07-26T02:02:51.323Z,88.61
2023-07-26T02:03:23.547Z,88.29
2023-07-26T02:03:55.379Z,88.17
2023-07-26T02:04:27.715Z,88.11
2023-07-26T02:04:59.678Z,88.56
2023-07-26T02:05:31.550Z,88.74
2023-07-26T02:06:03.402Z,88.67
2023-07-26T02:06:35.244Z,88.35
2023-07-26T02:07:07.110Z,88.72
2023-07-26T02:07:39.139Z,88.63
2023-07-26T02:08:11.244Z,88.09
2023-07-26T02:08:43.148Z,88.38
2023-07-26T02:09:14.967Z,88.77
2023-07-26T02:09:46.785Z,88.42
2023-07-26T02:10:18.663Z,88.08
2023-07-26T02:10:50.464Z,88.73
2023-07-26T02:11:22.280Z,88.06
2023-07-26T02:11:54.108Z,88.17
2023-07-26T02:12:26.071Z,88.01
2023-07-26T02:12:57.899Z,88.54
2023-07-26T02:13:29.720Z,87.72
2023-07-26T02:14:01.546Z,87.98
2023-07-26T02:14:33.393Z,88.17
2023-07-26T02:15:06.669Z,88.26
2023-07-26T02:15:38.498Z,88.34
2023-07-26T02:16:10.364Z,88.38
2023-07-26T02:16:42.253Z,87.87
2023-07-26T02:17:14.116Z,88.02
2023-07-26T02:17:45.972Z,88.28
2023-07-26T02:18:18.005Z,88.84
2023-07-26T02:18:49.818Z,88.41
2023-07-26T02:19:22.003Z,88.29
2023-07-26T02:19:53.841Z,88.70
2023-07-26T02:20:25.675Z,88.75
2023-07-26T02:20:57.494Z,88.35
2023-07-26T02:21:29.341Z,88.72
2023-07-26T02:22:01.209Z,88.77
2023-07-26T02:22:33.078Z,89.01
2023-07-26T02:23:04.901Z,88.95
2023-07-26T02:23:36.812Z,88.78
2023-07-26T02:24:08.618Z,88.88
2023-07-26T02:24:40.552Z,88.66
2023-07-26T02:25:12.780Z,88.73
2023-07-26T02:25:45.754Z,89.02
2023-07-26T02:26:17.580Z,89.35
2023-07-26T02:26:49.411Z,89.21
2023-07-26T02:27:21.262Z,89.16
2023-07-26T02:27:53.082Z,88.71
2023-07-26T02:28:24.908Z,88.82
2023-07-26T02:28:56.768Z,88.55
2023-07-26T02:29:28.675Z,89.22
2023-07-26T02:30:00.533Z,88.81
2023-07-26T02:30:32.335Z,88.79
2023-07-26T02:31:04.210Z,89.22
2023-07-26T02:31:36.214Z,88.89
2023-07-26T02:32:11.108Z,89.05
2023-07-26T02:32:43.000Z,89.36
2023-07-26T02:33:14.841Z,89.09
2023-07-26T02:33:46.723Z,88.52
2023-07-26T02:34:18.541Z,88.47
2023-07-26T02:34:50.368Z,88.36
2023-07-26T02:35:22.239Z,89.14
2023-07-26T02:35:54.132Z,88.75
2023-07-26T02:36:26.413Z,88.79
2023-07-26T02:36:58.238Z,89.44
2023-07-26T02:37:30.246Z,89.70
2023-07-26T02:38:02.080Z,89.05
2023-07-26T02:38:33.885Z,89.69
2023-07-26T02:39:05.742Z,89.47
2023-07-26T02:39:37.565Z,88.69
2023-07-26T02:40:09.878Z,88.76
2023-07-26T02:40:42.070Z,88.76
2023-07-26T02:41:13.897Z,88.84
2023-07-26T02:41:45.771Z,88.82
2023-07-26T02:42:17.862Z,88.54
2023-07-26T02:42:49.703Z,89.07
2023-07-26T02:43:30.892Z,89.15
2023-07-26T02:44:10.733Z,89.06
2023-07-26T02:44:42.543Z,88.68
2023-07-26T02:45:14.363Z,88.25
2023-07-26T02:45:46.210Z,88.32
2023-07-26T02:46:18.070Z,88.14
2023-07-26T02:46:49.939Z,88.05
2023-07-26T02:47:21.961Z,89.16
2023-07-26T02:47:53.824Z,88.74
2023-07-26T02:48:25.634Z,88.91
2023-07-26T02:48:57.449Z,88.75
2023-07-26T02:49:29.266Z,88.81
2023-07-26T02:50:02.727Z,88.90
2023-07-26T02:50:34.920Z,89.07
2023-07-26T02:51:06.795Z,88.91
2023-07-26T02:51:38.737Z,88.16
2023-07-26T02:52:10.543Z,88.30
2023-07-26T02:52:42.377Z,88.30
2023-07-26T02:53:14.183Z,88.80
2023-07-26T02:53:46.019Z,88.28
2023-07-26T02:54:17.855Z,88.29
2023-07-26T02:54:49.773Z,88.34
2023-07-26T02:55:21.599Z,88.00
2023-07-26T02:55:53.470Z,88.35
2023-07-26T02:56:25.319Z,87.95
2023-07-26T02:56:57.145Z,88.12
2023-07-26T02:57:29.024Z,87.68
2023-07-26T02:58:01.552Z,87.62
2023-07-26T02:58:33.353Z,87.72
2023-07-26T02:59:05.178Z,87.92
2023-07-26T02:59:37.011Z,87.73
2023-07-26T03:00:09.531Z,88.04
2023-07-26T03:00:41.353Z,87.52
2023-07-26T03:01:13.229Z,87.88
2023-07-26T03:01:46.045Z,87.75
2023-07-26T03:02:17.923Z,88.02
2023-07-26T03:02:49.803Z,87.27
2023-07-26T03:03:21.935Z,87.72
2023-07-26T03:03:53.971Z,87.84
2023-07-26T03:04:25.793Z,87.31
2023-07-26T03:04:57.612Z,87.48
2023-07-26T03:05:30.031Z,87.16
2023-07-26T03:06:01.853Z,88.13
2023-07-26T03:06:33.708Z,87.89
2023-07-26T03:07:05.772Z,87.53
2023-07-26T03:07:37.622Z,87.12
2023-07-26T03:08:09.468Z,87.14
2023-07-26T03:08:41.784Z,87.59
2023-07-26T03:09:13.609Z,87.31
2023-07-26T03:09:45.477Z,87.41
2023-07-26T03:10:18.310Z,86.97
2023-07-26T03:10:52.702Z,87.32
2023-07-26T03:11:24.509Z,87.28
2023-07-26T03:11:56.912Z,87.22
2023-07-26T03:12:29.116Z,87.42
2023-07-26T03:13:00.980Z,87.27
2023-07-26T03:13:32.788Z,87.60
2023-07-26T03:14:04.728Z,87.71
2023-07-26T03:14:41.850Z,87.66
2023-07-26T03:15:13.999Z,87.86
2023-07-26T03:15:46.341Z,87.52
2023-07-26T03:16:18.703Z,87.86
2023-07-26T03:16:50.556Z,88.10
2023-07-26T03:17:23.502Z,88.04
2023-07-26T03:17:55.757Z,88.14
2023-07-26T03:18:27.578Z,88.11
2023-07-26T03:18:59.407Z,87.87
2023-07-26T03:19:31.213Z,88.03
2023-07-26T03:20:04.393Z,88.03
2023-07-26T03:20:36.274Z,88.07
2023-07-26T03:21:08.222Z,88.42
2023-07-26T03:21:40.074Z,87.92
2023-07-26T03:22:11.895Z,88.00
2023-07-26T03:22:43.706Z,88.21
2023-07-26T03:23:15.719Z,87.33
2023-07-26T03:23:47.531Z,87.49
2023-07-26T03:24:19.349Z,87.29
2023-07-26T03:24:51.224Z,87.41
2023-07-26T03:25:23.054Z,87.62
2023-07-26T03:25:55.905Z,87.42
2023-07-26T03:26:27.712Z,87.80
2023-07-26T03:26:59.630Z,87.19
2023-07-26T03:27:31.432Z,86.81
2023-07-26T03:28:04.918Z,86.71
2023-07-26T03:28:36.755Z,86.58
2023-07-26T03:29:08.579Z,86.57
2023-07-26T03:29:40.405Z,86.36
2023-07-26T03:30:12.671Z,86.28
2023-07-26T03:30:44.510Z,86.54
2023-07-26T03:31:16.341Z,86.31
2023-07-26T03:31:48.152Z,85.97
2023-07-26T03:32:19.985Z,86.08
2023-07-26T03:32:51.835Z,86.25
2023-07-26T03:33:24.659Z,86.13
2023-07-26T03:33:56.573Z,85.76
2023-07-26T03:34:28.461Z,85.70
2023-07-26T03:35:00.349Z,85.97
2023-07-26T03:35:32.412Z,86.02
2023-07-26T03:36:04.576Z,85.62
2023-07-26T03:36:36.443Z,85.91
2023-07-26T03:37:09.409Z,85.63
2023-07-26T03:37:41.240Z,85.60
2023-07-26T03:38:13.069Z,85.20
2023-07-26T03:38:44.897Z,85.26
2023-07-26T03:39:16.749Z,85.31
2023-07-26T03:39:48.601Z,85.37
2023-07-26T03:40:21.135Z,84.92
2023-07-26T03:40:52.957Z,85.12
2023-07-26T03:41:24.767Z,84.75
2023-07-26T03:41:56.590Z,84.84
2023-07-26T03:42:29.188Z,84.28
2023-07-26T03:43:01.079Z,84.19
2023-07-26T03:43:32.887Z,83.95
2023-07-26T03:44:04.821Z,84.06
2023-07-26T03:44:36.723Z,83.37
2023-07-26T03:45:08.741Z,83.53
2023-07-26T03:45:41.859Z,83.31
2023-07-26T03:46:13.852Z,83.62
2023-07-26T03:46:45.779Z,83.19
2023-07-26T03:47:17.592Z,82.98
2023-07-26T03:47:49.496Z,83.24
2023-07-26T03:48:21.334Z,83.52
2023-07-26T03:48:53.150Z,82.90
2023-07-26T03:49:24.982Z,83.00
2023-07-26T03:49:56.856Z,82.58
2023-07-26T03:50:28.737Z,82.59
2023-07-26T03:51:00.568Z,82.57
2023-07-26T03:51:32.486Z,82.89
2023-07-26T03:52:05.903Z,82.19
2023-07-26T03:52:37.757Z,82.07
2023-07-26T03:53:09.595Z,82.60
2023-07-26T03:53:41.433Z,82.22
2023-07-26T03:54:13.248Z,81.85
2023-07-26T03:54:46.473Z,82.09
2023-07-26T03:55:18.291Z,81.49
2023-07-26T03:55:50.116Z,81.06
2023-07-26T03:56:21.946Z,82.19
2023-07-26T03:56:53.759Z,81.46
2023-07-26T03:57:25.601Z,81.31
2023-07-26T03:57:59.025Z,81.19
2023-07-26T03:58:30.840Z,81.10
2023-07-26T03:59:03.500Z,80.73
2023-07-26T03:59:35.318Z,81.08
2023-07-26T04:00:07.681Z,81.16
2023-07-26T04:00:39.577Z,80.49
2023-07-26T04:01:11.403Z,80.74
2023-07-26T04:01:43.260Z,80.72
2023-07-26T04:02:15.123Z,80.81
2023-07-26T04:02:47.140Z,80.62
2023-07-26T04:03:19.337Z,79.97
2023-07-26T04:03:51.389Z,80.62
2023-07-26T04:04:23.248Z,80.31
2023-07-26T04:04:55.051Z,80.69
2023-07-26T04:05:26.886Z,80.16
2023-07-26T04:05:58.722Z,79.97
2023-07-26T04:06:30.987Z,79.99
2023-07-26T04:07:05.952Z,80.35
2023-07-26T04:07:40.368Z,79.98
2023-07-26T04:08:12.180Z,80.51
2023-07-26T04:08:44.001Z,80.41
2023-07-26T04:09:15.823Z,80.19
2023-07-26T04:09:47.728Z,79.85
2023-07-26T04:10:19.672Z,80.12
2023-07-26T04:10:51.486Z,79.76
2023-07-26T04:11:23.303Z,79.86
2023-07-26T04:11:58.296Z,80.06
2023-07-26T04:12:30.127Z,80.04
2023-07-26T04:13:01.953Z,80.40
2023-07-26T04:13:34.621Z,79.89
2023-07-26T04:14:06.413Z,80.36
2023-07-26T04:14:38.284Z,79.71
2023-07-26T04:15:10.606Z,79.87
2023-07-26T04:15:42.478Z,79.76
2023-07-26T04:16:14.467Z,80.02
2023-07-26T04:16:46.293Z,80.09
2023-07-26T04:17:18.855Z,79.84
2023-07-26T04:17:50.797Z,80.04
2023-07-26T04:18:22.678Z,79.70
2023-07-26T04:18:54.689Z,79.96
2023-07-26T04:19:26.507Z,80.23
2023-07-26T04:19:58.357Z,80.02
2023-07-26T04:20:30.166Z,80.06
2023-07-26T04:21:01.961Z,80.26
2023-07-26T04:21:33.754Z,80.46
2023-07-26T04:22:05.762Z,80.42
2023-07-26T04:22:37.614Z,80.17
2023-07-26T04:23:09.467Z,80.58
2023-07-26T04:23:41.910Z,80.13
2023-07-26T04:24:13.759Z,80.24
2023-07-26T04:24:46.207Z,79.97
2023-07-26T04:25:18.058Z,79.98
2023-07-26T04:25:53.001Z,80.28
2023-07-26T04:26:24.821Z,79.70
2023-07-26T04:26:56.738Z,80.23
2023-07-26T04:27:28.576Z,79.87
2023-07-26T04:28:00.380Z,80.24
2023-07-26T04:28:32.217Z,80.28
2023-07-26T04:29:04.040Z,80.11
2023-07-26T04:29:35.935Z,80.10
2023-07-26T04:30:08.305Z,80.23
2023-07-26T04:30:40.184Z,80.61
2023-07-26T04:31:12.124Z,80.64
2023-07-26T04:31:43.974Z,80.34
2023-07-26T04:32:15.832Z,80.44
2023-07-26T04:32:47.676Z,80.56
2023-07-26T04:33:19.569Z,80.39
2023-07-26T04:33:51.626Z,80.51
2023-07-26T04:34:23.499Z,80.63
2023-07-26T04:34:55.359Z,80.62
2023-07-26T04:35:27.158Z,80.00
2023-07-26T04:35:59.058Z,80.07
2023-07-26T04:36:31.264Z,79.83
2023-07-26T04:37:03.350Z,80.02
2023-07-26T04:37:35.839Z,79.92
2023-07-26T04:38:07.652Z,80.35
2023-07-26T04:38:39.509Z,80.14
2023-07-26T04:39:11.315Z,80.25
2023-07-26T04:39:43.134Z,80.37
2023-07-26T04:40:14.957Z,80.76
2023-07-26T04:40:48.933Z,80.58
2023-07-26T04:41:20.725Z,80.44
2023-07-26T04:41:52.548Z,80.37
2023-07-26T04:42:24.360Z,80.51
2023-07-26T04:42:56.154Z,80.68
2023-07-26T04:43:27.996Z,81.10
2023-07-26T04:43:59.793Z,80.78
2023-07-26T04:44:31.643Z,80.76
2023-07-26T04:45:03.706Z,80.43
2023-07-26T04:45:35.521Z,80.82
2023-07-26T04:46:07.338Z,80.70
2023-07-26T04:46:39.209Z,80.87
2023-07-26T04:47:11.056Z,80.60
2023-07-26T04:47:42.949Z,80.01
2023-07-26T04:48:15.864Z,81.05
2023-07-26T04:48:48.191Z,80.52
2023-07-26T04:49:20.005Z,80.79
2023-07-26T04:49:52.023Z,80.45
2023-07-26T04:50:23.835Z,80.69
2023-07-26T04:50:55.711Z,80.57
2023-07-26T04:51:27.522Z,80.53
2023-07-26T04:51:59.369Z,79.96
2023-07-26T04:52:31.268Z,80.34
2023-07-26T04:53:03.186Z,80.17
2023-07-26T04:53:35.068Z,80.67
2023-07-26T04:54:06.960Z,80.13
2023-07-26T04:54:38.805Z,80.39
2023-07-26T04:55:10.631Z,80.17
2023-07-26T04:55:47.960Z,80.19
2023-07-26T04:56:19.802Z,80.61
2023-07-26T04:56:51.651Z,80.14
2023-07-26T04:57:23.518Z,80.26
2023-07-26T04:57:55.342Z,80.13
2023-07-26T04:58:27.187Z,79.84
2023-07-26T04:58:59.017Z,79.80
2023-07-26T04:59:30.864Z,79.77
2023-07-26T05:00:02.695Z,79.30
2023-07-26T05:00:34.534Z,79.53
2023-07-26T05:01:06.389Z,79.66
2023-07-26T05:01:38.207Z,80.05
2023-07-26T05:02:10.048Z,80.01
2023-07-26T05:02:41.949Z,79.64
2023-07-26T05:03:14.393Z,79.33
2023-07-26T05:03:46.281Z,79.16
2023-07-26T05:04:18.197Z,79.51
2023-07-26T05:04:50.033Z,79.05
2023-07-26T05:05:21.916Z,79.50
2023-07-26T05:05:53.817Z,79.65
2023-07-26T05:06:25.694Z,79.05
2023-07-26T05:06:57.560Z,78.65
2023-07-26T05:07:29.369Z,77.81
2023-07-26T05:08:02.328Z,78.67
2023-07-26T05:08:35.245Z,78.43
2023-07-26T05:09:07.162Z,78.21
2023-07-26T05:09:38.978Z,78.68
2023-07-26T05:10:10.949Z,78.34
2023-07-26T05:10:42.824Z,77.59
2023-07-26T05:11:15.606Z,78.21
2023-07-26T05:11:47.412Z,77.61
2023-07-26T05:12:19.255Z,77.82
2023-07-26T05:12:51.608Z,78.70
2023-07-26T05:13:25.141Z,78.84
2023-07-26T05:13:56.977Z,78.26
2023-07-26T05:14:28.847Z,77.23
2023-07-26T05:15:00.688Z,77.18
2023-07-26T05:15:32.553Z,76.95
2023-07-26T05:16:04.508Z,76.74
2023-07-26T05:16:36.392Z,76.90
2023-07-26T05:17:08.468Z,76.79
2023-07-26T05:17:40.309Z,76.58
2023-07-26T05:18:12.267Z,76.37
2023-07-26T05:18:44.190Z,76.05
2023-07-26T05:19:16.003Z,75.88
2023-07-26T05:19:47.827Z,76.32
2023-07-26T05:20:19.700Z,76.51
2023-07-26T05:20:52.429Z,76.41
2023-07-26T05:21:24.277Z,76.49
2023-07-26T05:21:56.105Z,76.31
2023-07-26T05:22:27.925Z,75.75
2023-07-26T05:22:59.738Z,75.90
2023-07-26T05:23:31.555Z,76.58
2023-07-26T05:24:03.414Z,76.70
2023-07-26T05:24:35.363Z,76.41
2023-07-26T05:25:07.899Z,75.86
2023-07-26T05:25:41.319Z,76.35
2023-07-26T05:26:13.138Z,76.69
2023-07-26T05:26:44.964Z,75.67
2023-07-26T05:27:16.815Z,76.29
2023-07-26T05:27:48.819Z,76.02
2023-07-26T05:28:22.458Z,75.72
2023-07-26T05:28:55.380Z,75.93
2023-07-26T05:29:27.260Z,75.96
2023-07-26T05:29:59.464Z,76.45
2023-07-26T05:30:31.323Z,76.14
2023-07-26T05:31:03.264Z,75.92
2023-07-26T05:31:35.365Z,76.23
2023-07-26T05:32:08.215Z,75.80
2023-07-26T05:32:40.112Z,76.29
2023-07-26T05:33:11.968Z,76.00
2023-07-26T05:33:43.789Z,75.34
2023-07-26T05:34:16.936Z,75.82
2023-07-26T05:34:48.862Z,76.18
2023-07-26T05:35:20.686Z,76.16
2023-07-26T05:35:52.542Z,76.10
2023-07-26T05:36:24.357Z,76.29
2023-07-26T05:36:56.182Z,76.39
2023-07-26T05:37:28.018Z,76.05
2023-07-26T05:37:59.993Z,75.99
2023-07-26T05:38:31.829Z,75.80
2023-07-26T05:39:03.700Z,75.59
2023-07-26T05:39:35.500Z,75.77
2023-07-26T05:40:08.126Z,76.05
2023-07-26T05:40:39.949Z,76.54
2023-07-26T05:41:11.770Z,76.21
2023-07-26T05:41:43.600Z,76.29
2023-07-26T05:42:15.495Z,76.09
2023-07-26T05:42:47.339Z,75.93
2023-07-26T05:43:19.931Z,75.97
2023-07-26T05:43:51.757Z,76.16
2023-07-26T05:44:23.620Z,75.38
2023-07-26T05:44:55.430Z,76.13
2023-07-26T05:45:27.265Z,75.45
2023-07-26T05:45:59.200Z,75.84
2023-07-26T05:46:31.126Z,75.57
2023-07-26T05:47:03.052Z,75.86
2023-07-26T05:47:39.060Z,76.06
2023-07-26T05:48:11.037Z,75.91
2023-07-26T05:48:42.909Z,75.79
2023-07-26T05:49:14.801Z,75.72
2023-07-26T05:49:46.637Z,75.88
2023-07-26T05:50:18.446Z,76.14
2023-07-26T05:50:50.266Z,76.25
2023-07-26T05:51:22.096Z,75.95
2023-07-26T05:51:54.845Z,76.44
2023-07-26T05:52:26.732Z,75.91
2023-07-26T05:52:58.555Z,76.25
2023-07-26T05:53:30.352Z,75.66
2023-07-26T05:54:02.213Z,75.66
2023-07-26T05:54:34.019Z,76.50
2023-07-26T05:55:07.052Z,76.41
2023-07-26T05:55:38.881Z,75.78
2023-07-26T05:56:11.689Z,76.43
2023-07-26T05:56:43.527Z,75.99
2023-07-26T05:57:15.364Z,76.43
2023-07-26T05:57:47.229Z,75.91
2023-07-26T05:58:19.133Z,75.82
2023-07-26T05:58:52.268Z,75.87
2023-07-26T05:59:24.390Z,75.97
2023-07-26T05:59:56.450Z,76.24
2023-07-26T06:00:28.400Z,76.24
2023-07-26T06:01:00.267Z,76.27
2023-07-26T06:01:33.161Z,75.27
2023-07-26T06:02:06.058Z,75.70
2023-07-26T06:02:38.006Z,76.02
2023-07-26T06:03:09.966Z,75.69
2023-07-26T06:03:43.700Z,75.63
2023-07-26T06:04:15.549Z,74.86
2023-07-26T06:04:48.344Z,75.52
2023-07-26T06:05:20.309Z,75.33
2023-07-26T06:05:52.351Z,75.57
2023-07-26T06:06:24.217Z,75.07
2023-07-26T06:06:57.112Z,75.18
2023-07-26T06:07:28.978Z,75.27
2023-07-26T06:08:00.837Z,74.80
2023-07-26T06:08:33.221Z,74.79
2023-07-26T06:09:06.496Z,74.58
2023-07-26T06:09:38.349Z,74.83
2023-07-26T06:10:10.380Z,74.87
2023-07-26T06:10:42.337Z,74.73
2023-07-26T06:11:14.272Z,74.66
2023-07-26T06:11:55.614Z,74.92
2023-07-26T06:12:28.810Z,75.41
2023-07-26T06:13:01.524Z,75.28
2023-07-26T06:13:33.393Z,75.52
2023-07-26T06:14:05.233Z,75.16
2023-07-26T06:14:37.380Z,74.88
2023-07-26T06:15:09.543Z,74.90
2023-07-26T06:15:42.232Z,75.29
2023-07-26T06:16:14.144Z,75.26
2023-07-26T06:16:46.154Z,75.33
2023-07-26T06:17:18.271Z,75.51
2023-07-26T06:17:50.273Z,75.48
2023-07-26T06:18:22.141Z,75.83
2023-07-26T06:18:54.157Z,75.50
2023-07-26T06:19:26.015Z,75.74
2023-07-26T06:19:57.840Z,75.80
2023-07-26T06:20:29.685Z,75.58
2023-07-26T06:21:01.504Z,75.43
2023-07-26T06:21:35.225Z,75.14
2023-07-26T06:22:07.943Z,75.32
2023-07-26T06:22:39.771Z,75.81
2023-07-26T06:23:11.576Z,76.04
2023-07-26T06:23:43.591Z,76.70
2023-07-26T06:24:15.420Z,76.46
2023-07-26T06:24:47.259Z,76.39
2023-07-26T06:25:19.072Z,76.93
2023-07-26T06:25:51.034Z,76.37
2023-07-26T06:26:23.194Z,76.35
2023-07-26T06:26:55.657Z,76.87
2023-07-26T06:27:30.762Z,77.38
2023-07-26T06:28:02.592Z,76.57
2023-07-26T06:28:34.537Z,77.12
2023-07-26T06:29:06.505Z,78.02
2023-07-26T06:29:38.580Z,78.75
2023-07-26T06:30:10.894Z,77.64
2023-07-26T06:30:42.786Z,78.59
2023-07-26T06:31:14.756Z,78.18
2023-07-26T06:31:46.707Z,78.23
2023-07-26T06:32:18.513Z,78.03
2023-07-26T06:32:51.131Z,79.10
2023-07-26T06:33:23.023Z,79.20
2023-07-26T06:33:54.842Z,79.25
2023-07-26T06:34:26.728Z,79.41
2023-07-26T06:34:58.556Z,78.73
2023-07-26T06:35:30.440Z,78.42
2023-07-26T06:36:02.259Z,79.24
2023-07-26T06:36:34.088Z,79.14
2023-07-26T06:37:06.122Z,78.98
2023-07-26T06:37:38.016Z,79.16
2023-07-26T06:38:10.337Z,79.67
2023-07-26T06:38:42.142Z,80.10
2023-07-26T06:39:14.189Z,78.38
2023-07-26T06:39:46.525Z,78.42
2023-07-26T06:40:18.403Z,79.89
2023-07-26T06:40:50.410Z,80.54
2023-07-26T06:41:22.240Z,80.47
2023-07-26T06:41:54.060Z,80.65
2023-07-26T06:42:25.869Z,80.59
2023-07-26T06:42:57.733Z,81.48
2023-07-26T06:43:30.133Z,81.09
2023-07-26T06:44:01.983Z,81.01
2023-07-26T06:44:33.925Z,80.70
2023-07-26T06:45:06.067Z,80.13
2023-07-26T06:45:37.941Z,80.10
2023-07-26T06:46:09.835Z,80.22
2023-07-26T06:46:41.689Z,81.59
2023-07-26T06:47:13.523Z,81.36
2023-07-26T06:47:45.381Z,80.56
2023-07-26T06:48:18.010Z,80.80
2023-07-26T06:48:49.936Z,80.79
2023-07-26T06:49:21.777Z,81.24
2023-07-26T06:49:53.596Z,80.87
2023-07-26T06:50:25.470Z,81.29
2023-07-26T06:50:57.314Z,81.43
2023-07-26T06:51:29.201Z,81.07
2023-07-26T06:52:01.004Z,82.34
2023-07-26T06:52:32.842Z,81.26
2023-07-26T06:53:04.688Z,80.37
2023-07-26T06:53:36.574Z,81.12
2023-07-26T06:54:08.419Z,81.67
2023-07-26T06:54:40.325Z,81.94
2023-07-26T06:55:12.186Z,81.56
2023-07-26T06:55:44.023Z,81.42
2023-07-26T06:56:15.845Z,81.37
2023-07-26T06:56:48.831Z,81.69
2023-07-26T06:57:20.705Z,81.00
2023-07-26T06:57:53.881Z,81.84
2023-07-26T06:58:25.814Z,82.58
2023-07-26T06:58:57.622Z,81.90